sensor_id;sensor_type;location;lat;lon;timestamp;P1;durP1;ratioP1;P2;durP2;ratioP2
20095;SDS011;10207;50.942;6.900;2022-07-03T00:00:16;4.38;;;1.33;;
20095;SDS011;10207;50.942;6.900;2022-07-03T00:02:42;4.10;;;1.40;;
20095;SDS011;10207;50.942;6.900;2022-07-03T00:05:08;2.45;;;1.00;;
20095;SDS011;10207;50.942;6.900;2022-07-03T00:07:34;7.82;;;1.52;;
20095;SDS011;10207;50.942;6.900;2022-07-03T00:09:59;4.03;;;1.05;;
20095;SDS011;10207;50.942;6.900;2022-07-03T00:12:25;3.80;;;1.05;;
20095;SDS011;10207;50.942;6.900;2022-07-03T00:14:51;6.22;;;1.38;;
20095;SDS011;10207;50.942;6.900;2022-07-03T00:17:17;6.20;;;1.05;;
20095;SDS011;10207;50.942;6.900;2022-07-03T00:19:42;4.47;;;1.00;;
20095;SDS011;10207;50.942;6.900;2022-07-03T00:22:10;5.22;;;1.00;;
20095;SDS011;10207;50.942;6.900;2022-07-03T00:24:43;3.30;;;1.10;;
20095;SDS011;10207;50.942;6.900;2022-07-03T00:27:13;2.75;;;1.13;;
20095;SDS011;10207;50.942;6.900;2022-07-03T00:29:43;2.80;;;1.05;;
20095;SDS011;10207;50.942;6.900;2022-07-03T00:32:10;4.03;;;1.42;;
20095;SDS011;10207;50.942;6.900;2022-07-03T00:34:39;2.63;;;1.00;;
20095;SDS011;10207;50.942;6.900;2022-07-03T00:37:06;4.45;;;1.15;;
20095;SDS011;10207;50.942;6.900;2022-07-03T00:39:35;5.20;;;1.20;;
20095;SDS011;10207;50.942;6.900;2022-07-03T00:42:01;2.85;;;1.10;;
20095;SDS011;10207;50.942;6.900;2022-07-03T00:44:28;3.22;;;1.02;;
20095;SDS011;10207;50.942;6.900;2022-07-03T00:46:54;2.97;;;1.20;;
20095;SDS011;10207;50.942;6.900;2022-07-03T00:49:20;4.40;;;1.35;;
20095;SDS011;10207;50.942;6.900;2022-07-03T00:51:49;3.15;;;1.10;;
20095;SDS011;10207;50.942;6.900;2022-07-03T00:54:16;2.60;;;1.27;;
20095;SDS011;10207;50.942;6.900;2022-07-03T00:56:43;1.63;;;1.00;;
20095;SDS011;10207;50.942;6.900;2022-07-03T00:59:11;2.35;;;1.13;;
20095;SDS011;10207;50.942;6.900;2022-07-03T01:01:37;2.90;;;1.33;;
20095;SDS011;10207;50.942;6.900;2022-07-03T01:06:50;2.78;;;1.10;;
20095;SDS011;10207;50.942;6.900;2022-07-03T01:09:16;2.90;;;1.10;;
20095;SDS011;10207;50.942;6.900;2022-07-03T01:11:48;2.38;;;1.10;;
20095;SDS011;10207;50.942;6.900;2022-07-03T01:27:13;6.75;;;1.27;;
20095;SDS011;10207;50.942;6.900;2022-07-03T01:29:52;2.40;;;1.20;;
20095;SDS011;10207;50.942;6.900;2022-07-03T01:32:22;5.95;;;2.47;;
20095;SDS011;10207;50.942;6.900;2022-07-03T01:34:50;3.63;;;1.20;;
20095;SDS011;10207;50.942;6.900;2022-07-03T01:37:17;4.68;;;1.23;;
20095;SDS011;10207;50.942;6.900;2022-07-03T01:39:47;2.33;;;0.80;;
20095;SDS011;10207;50.942;6.900;2022-07-03T01:42:14;5.30;;;1.10;;
20095;SDS011;10207;50.942;6.900;2022-07-03T01:44:41;2.22;;;1.17;;
20095;SDS011;10207;50.942;6.900;2022-07-03T01:47:07;6.30;;;1.70;;
20095;SDS011;10207;50.942;6.900;2022-07-03T01:49:32;4.35;;;1.00;;
20095;SDS011;10207;50.942;6.900;2022-07-03T01:52:00;5.20;;;1.17;;
20095;SDS011;10207;50.942;6.900;2022-07-03T01:54:27;2.10;;;1.00;;
20095;SDS011;10207;50.942;6.900;2022-07-03T01:56:53;2.70;;;1.20;;
20095;SDS011;10207;50.942;6.900;2022-07-03T01:59:20;3.72;;;1.05;;
20095;SDS011;10207;50.942;6.900;2022-07-03T02:01:52;3.67;;;1.45;;
20095;SDS011;10207;50.942;6.900;2022-07-03T02:07:01;2.55;;;0.90;;
20095;SDS011;10207;50.942;6.900;2022-07-03T02:09:32;2.78;;;0.90;;
20095;SDS011;10207;50.942;6.900;2022-07-03T02:12:00;3.75;;;1.40;;
20095;SDS011;10207;50.942;6.900;2022-07-03T02:14:33;1.98;;;0.90;;
20095;SDS011;10207;50.942;6.900;2022-07-03T02:17:17;6.05;;;1.13;;
20095;SDS011;10207;50.942;6.900;2022-07-03T02:19:46;3.92;;;1.30;;
20095;SDS011;10207;50.942;6.900;2022-07-03T02:22:15;4.93;;;1.63;;
20095;SDS011;10207;50.942;6.900;2022-07-03T02:24:44;2.38;;;1.88;;
20095;SDS011;10207;50.942;6.900;2022-07-03T02:27:13;3.30;;;1.20;;
20095;SDS011;10207;50.942;6.900;2022-07-03T02:30:27;5.00;;;1.30;;
20095;SDS011;10207;50.942;6.900;2022-07-03T02:32:26;2.42;;;1.15;;
20095;SDS011;10207;50.942;6.900;2022-07-03T02:34:58;6.82;;;1.77;;
20095;SDS011;10207;50.942;6.900;2022-07-03T02:37:28;4.72;;;1.27;;
20095;SDS011;10207;50.942;6.900;2022-07-03T02:40:06;5.00;;;1.60;;
20095;SDS011;10207;50.942;6.900;2022-07-03T02:42:41;3.85;;;1.65;;
20095;SDS011;10207;50.942;6.900;2022-07-03T02:45:09;2.97;;;1.42;;
20095;SDS011;10207;50.942;6.900;2022-07-03T02:50:06;6.80;;;1.20;;
20095;SDS011;10207;50.942;6.900;2022-07-03T02:52:39;5.88;;;1.65;;
20095;SDS011;10207;50.942;6.900;2022-07-03T03:00:38;4.95;;;2.28;;
20095;SDS011;10207;50.942;6.900;2022-07-03T03:03:07;1.90;;;0.98;;
20095;SDS011;10207;50.942;6.900;2022-07-03T03:05:48;7.18;;;1.60;;
20095;SDS011;10207;50.942;6.900;2022-07-03T03:10:59;3.13;;;1.45;;
20095;SDS011;10207;50.942;6.900;2022-07-03T03:13:28;2.95;;;1.30;;
20095;SDS011;10207;50.942;6.900;2022-07-03T03:16:09;3.80;;;1.25;;
20095;SDS011;10207;50.942;6.900;2022-07-03T03:18:38;3.83;;;1.40;;
20095;SDS011;10207;50.942;6.900;2022-07-03T03:21:11;3.20;;;1.45;;
20095;SDS011;10207;50.942;6.900;2022-07-03T03:23:48;4.45;;;1.63;;
20095;SDS011;10207;50.942;6.900;2022-07-03T03:26:16;3.17;;;1.40;;
20095;SDS011;10207;50.942;6.900;2022-07-03T03:28:42;3.38;;;1.13;;
20095;SDS011;10207;50.942;6.900;2022-07-03T03:31:08;4.15;;;1.50;;
20095;SDS011;10207;50.942;6.900;2022-07-03T03:33:38;4.00;;;1.45;;
20095;SDS011;10207;50.942;6.900;2022-07-03T03:36:05;4.15;;;1.65;;
20095;SDS011;10207;50.942;6.900;2022-07-03T03:38:32;5.00;;;1.35;;
20095;SDS011;10207;50.942;6.900;2022-07-03T03:40:58;5.65;;;1.70;;
20095;SDS011;10207;50.942;6.900;2022-07-03T03:43:24;4.35;;;1.48;;
20095;SDS011;10207;50.942;6.900;2022-07-03T03:45:50;6.03;;;1.65;;
20095;SDS011;10207;50.942;6.900;2022-07-03T03:48:15;5.03;;;1.48;;
20095;SDS011;10207;50.942;6.900;2022-07-03T03:50:41;4.18;;;1.20;;
20095;SDS011;10207;50.942;6.900;2022-07-03T03:53:09;3.83;;;1.20;;
20095;SDS011;10207;50.942;6.900;2022-07-03T03:55:35;5.15;;;1.52;;
20095;SDS011;10207;50.942;6.900;2022-07-03T03:58:01;2.45;;;1.05;;
20095;SDS011;10207;50.942;6.900;2022-07-03T04:00:27;4.35;;;1.60;;
20095;SDS011;10207;50.942;6.900;2022-07-03T04:02:53;3.78;;;1.30;;
20095;SDS011;10207;50.942;6.900;2022-07-03T04:05:19;7.68;;;1.58;;
20095;SDS011;10207;50.942;6.900;2022-07-03T04:07:45;11.70;;;1.60;;
20095;SDS011;10207;50.942;6.900;2022-07-03T04:10:10;5.78;;;1.70;;
20095;SDS011;10207;50.942;6.900;2022-07-03T04:12:36;4.00;;;1.38;;
20095;SDS011;10207;50.942;6.900;2022-07-03T04:15:02;3.90;;;1.38;;
20095;SDS011;10207;50.942;6.900;2022-07-03T04:17:28;5.32;;;1.25;;
20095;SDS011;10207;50.942;6.900;2022-07-03T04:19:54;3.92;;;1.48;;
20095;SDS011;10207;50.942;6.900;2022-07-03T04:22:20;2.70;;;1.30;;
20095;SDS011;10207;50.942;6.900;2022-07-03T04:24:46;3.63;;;2.28;;
20095;SDS011;10207;50.942;6.900;2022-07-03T04:27:12;4.82;;;1.40;;
20095;SDS011;10207;50.942;6.900;2022-07-03T04:29:37;2.80;;;1.40;;
20095;SDS011;10207;50.942;6.900;2022-07-03T04:32:03;5.07;;;1.40;;
20095;SDS011;10207;50.942;6.900;2022-07-03T04:34:29;3.35;;;1.45;;
20095;SDS011;10207;50.942;6.900;2022-07-03T04:36:55;3.65;;;1.15;;
20095;SDS011;10207;50.942;6.900;2022-07-03T04:39:20;1.88;;;1.00;;
20095;SDS011;10207;50.942;6.900;2022-07-03T04:41:46;4.63;;;1.38;;
20095;SDS011;10207;50.942;6.900;2022-07-03T04:44:12;6.90;;;1.55;;
20095;SDS011;10207;50.942;6.900;2022-07-03T04:46:38;3.45;;;1.10;;
20095;SDS011;10207;50.942;6.900;2022-07-03T04:49:03;4.25;;;1.02;;
20095;SDS011;10207;50.942;6.900;2022-07-03T04:51:29;7.07;;;1.83;;
20095;SDS011;10207;50.942;6.900;2022-07-03T04:53:55;5.53;;;1.50;;
20095;SDS011;10207;50.942;6.900;2022-07-03T04:56:21;5.80;;;1.83;;
20095;SDS011;10207;50.942;6.900;2022-07-03T04:58:46;6.03;;;1.80;;
20095;SDS011;10207;50.942;6.900;2022-07-03T05:01:12;9.25;;;1.65;;
20095;SDS011;10207;50.942;6.900;2022-07-03T05:03:38;7.28;;;1.80;;
20095;SDS011;10207;50.942;6.900;2022-07-03T05:06:04;6.85;;;1.70;;
20095;SDS011;10207;50.942;6.900;2022-07-03T05:08:29;4.38;;;1.50;;
20095;SDS011;10207;50.942;6.900;2022-07-03T05:10:55;4.97;;;1.50;;
20095;SDS011;10207;50.942;6.900;2022-07-03T05:13:21;4.72;;;1.85;;
20095;SDS011;10207;50.942;6.900;2022-07-03T05:15:47;10.13;;;1.98;;
20095;SDS011;10207;50.942;6.900;2022-07-03T05:18:12;4.03;;;1.58;;
20095;SDS011;10207;50.942;6.900;2022-07-03T05:20:38;5.95;;;1.35;;
20095;SDS011;10207;50.942;6.900;2022-07-03T05:23:04;3.38;;;1.30;;
20095;SDS011;10207;50.942;6.900;2022-07-03T05:25:31;5.15;;;1.75;;
20095;SDS011;10207;50.942;6.900;2022-07-03T05:27:57;3.97;;;1.20;;
20095;SDS011;10207;50.942;6.900;2022-07-03T05:30:24;6.22;;;1.23;;
20095;SDS011;10207;50.942;6.900;2022-07-03T05:32:51;3.65;;;1.05;;
20095;SDS011;10207;50.942;6.900;2022-07-03T05:35:17;3.67;;;1.15;;
20095;SDS011;10207;50.942;6.900;2022-07-03T05:37:42;3.85;;;1.30;;
20095;SDS011;10207;50.942;6.900;2022-07-03T05:40:08;7.20;;;1.55;;
20095;SDS011;10207;50.942;6.900;2022-07-03T05:42:34;7.40;;;2.08;;
20095;SDS011;10207;50.942;6.900;2022-07-03T05:45:00;3.17;;;1.23;;
20095;SDS011;10207;50.942;6.900;2022-07-03T05:47:26;4.07;;;1.30;;
20095;SDS011;10207;50.942;6.900;2022-07-03T05:49:52;3.20;;;1.15;;
20095;SDS011;10207;50.942;6.900;2022-07-03T05:52:18;3.45;;;1.17;;
20095;SDS011;10207;50.942;6.900;2022-07-03T05:54:44;6.80;;;1.40;;
20095;SDS011;10207;50.942;6.900;2022-07-03T05:57:10;7.13;;;2.05;;
20095;SDS011;10207;50.942;6.900;2022-07-03T05:59:36;5.03;;;1.60;;
20095;SDS011;10207;50.942;6.900;2022-07-03T06:02:01;7.15;;;1.80;;
20095;SDS011;10207;50.942;6.900;2022-07-03T06:04:27;6.93;;;0.95;;
20095;SDS011;10207;50.942;6.900;2022-07-03T06:06:53;3.25;;;1.20;;
20095;SDS011;10207;50.942;6.900;2022-07-03T06:09:20;3.70;;;1.00;;
20095;SDS011;10207;50.942;6.900;2022-07-03T06:11:46;3.80;;;1.25;;
20095;SDS011;10207;50.942;6.900;2022-07-03T06:14:13;6.95;;;1.25;;
20095;SDS011;10207;50.942;6.900;2022-07-03T06:16:39;4.95;;;1.35;;
20095;SDS011;10207;50.942;6.900;2022-07-03T06:19:05;5.35;;;1.20;;
20095;SDS011;10207;50.942;6.900;2022-07-03T06:21:31;5.18;;;1.13;;
20095;SDS011;10207;50.942;6.900;2022-07-03T06:23:57;2.97;;;0.98;;
20095;SDS011;10207;50.942;6.900;2022-07-03T06:26:23;4.38;;;1.40;;
20095;SDS011;10207;50.942;6.900;2022-07-03T06:28:49;6.28;;;1.40;;
20095;SDS011;10207;50.942;6.900;2022-07-03T06:31:14;4.20;;;1.02;;
20095;SDS011;10207;50.942;6.900;2022-07-03T06:33:40;3.03;;;1.05;;
20095;SDS011;10207;50.942;6.900;2022-07-03T06:36:06;4.05;;;1.25;;
20095;SDS011;10207;50.942;6.900;2022-07-03T06:38:32;6.95;;;1.30;;
20095;SDS011;10207;50.942;6.900;2022-07-03T06:40:57;7.97;;;1.80;;
20095;SDS011;10207;50.942;6.900;2022-07-03T06:43:23;5.75;;;1.80;;
20095;SDS011;10207;50.942;6.900;2022-07-03T06:45:49;3.67;;;1.73;;
20095;SDS011;10207;50.942;6.900;2022-07-03T06:48:15;6.10;;;1.67;;
20095;SDS011;10207;50.942;6.900;2022-07-03T06:50:40;6.53;;;1.40;;
20095;SDS011;10207;50.942;6.900;2022-07-03T06:53:06;5.78;;;1.50;;
20095;SDS011;10207;50.942;6.900;2022-07-03T06:55:32;5.75;;;1.65;;
20095;SDS011;10207;50.942;6.900;2022-07-03T06:57:58;4.82;;;1.70;;
20095;SDS011;10207;50.942;6.900;2022-07-03T07:00:23;6.55;;;1.70;;
20095;SDS011;10207;50.942;6.900;2022-07-03T07:02:49;4.85;;;1.60;;
20095;SDS011;10207;50.942;6.900;2022-07-03T07:05:15;7.13;;;2.00;;
20095;SDS011;10207;50.942;6.900;2022-07-03T07:07:41;5.60;;;1.83;;
20095;SDS011;10207;50.942;6.900;2022-07-03T07:10:07;5.03;;;1.75;;
20095;SDS011;10207;50.942;6.900;2022-07-03T07:12:32;4.13;;;1.90;;
20095;SDS011;10207;50.942;6.900;2022-07-03T07:14:58;6.88;;;1.95;;
20095;SDS011;10207;50.942;6.900;2022-07-03T07:17:24;5.97;;;1.92;;
20095;SDS011;10207;50.942;6.900;2022-07-03T07:19:50;6.38;;;2.08;;
20095;SDS011;10207;50.942;6.900;2022-07-03T07:22:15;5.50;;;2.20;;
20095;SDS011;10207;50.942;6.900;2022-07-03T07:24:41;5.28;;;2.20;;
20095;SDS011;10207;50.942;6.900;2022-07-03T07:27:07;6.38;;;2.40;;
20095;SDS011;10207;50.942;6.900;2022-07-03T07:29:33;3.97;;;1.90;;
20095;SDS011;10207;50.942;6.900;2022-07-03T07:31:58;5.40;;;1.85;;
20095;SDS011;10207;50.942;6.900;2022-07-03T07:34:24;5.05;;;1.40;;
20095;SDS011;10207;50.942;6.900;2022-07-03T07:36:50;8.60;;;2.00;;
20095;SDS011;10207;50.942;6.900;2022-07-03T07:39:15;3.47;;;1.60;;
20095;SDS011;10207;50.942;6.900;2022-07-03T07:41:41;4.65;;;1.58;;
20095;SDS011;10207;50.942;6.900;2022-07-03T07:44:07;3.67;;;2.00;;
20095;SDS011;10207;50.942;6.900;2022-07-03T07:46:33;3.75;;;1.70;;
20095;SDS011;10207;50.942;6.900;2022-07-03T07:48:58;4.63;;;1.80;;
20095;SDS011;10207;50.942;6.900;2022-07-03T07:51:24;5.88;;;1.75;;
20095;SDS011;10207;50.942;6.900;2022-07-03T07:53:50;6.57;;;1.92;;
20095;SDS011;10207;50.942;6.900;2022-07-03T07:56:18;6.00;;;2.47;;
20095;SDS011;10207;50.942;6.900;2022-07-03T07:58:43;4.50;;;1.45;;
20095;SDS011;10207;50.942;6.900;2022-07-03T08:01:09;5.32;;;1.60;;
20095;SDS011;10207;50.942;6.900;2022-07-03T08:03:53;6.30;;;2.00;;
20095;SDS011;10207;50.942;6.900;2022-07-03T08:06:38;5.88;;;2.22;;
20095;SDS011;10207;50.942;6.900;2022-07-03T08:09:04;4.55;;;1.90;;
20095;SDS011;10207;50.942;6.900;2022-07-03T08:11:29;5.88;;;1.95;;
20095;SDS011;10207;50.942;6.900;2022-07-03T08:13:55;6.57;;;1.73;;
20095;SDS011;10207;50.942;6.900;2022-07-03T08:16:21;3.97;;;1.60;;
20095;SDS011;10207;50.942;6.900;2022-07-03T08:18:46;5.43;;;1.70;;
20095;SDS011;10207;50.942;6.900;2022-07-03T08:21:12;2.47;;;1.38;;
20095;SDS011;10207;50.942;6.900;2022-07-03T08:23:38;4.32;;;1.20;;
20095;SDS011;10207;50.942;6.900;2022-07-03T08:26:04;4.32;;;1.38;;
20095;SDS011;10207;50.942;6.900;2022-07-03T08:28:30;7.82;;;2.05;;
20095;SDS011;10207;50.942;6.900;2022-07-03T08:30:56;4.10;;;1.52;;
20095;SDS011;10207;50.942;6.900;2022-07-03T08:33:22;6.57;;;1.63;;
20095;SDS011;10207;50.942;6.900;2022-07-03T08:35:47;5.95;;;1.95;;
20095;SDS011;10207;50.942;6.900;2022-07-03T08:38:13;3.55;;;1.40;;
20095;SDS011;10207;50.942;6.900;2022-07-03T08:40:39;6.32;;;1.67;;
20095;SDS011;10207;50.942;6.900;2022-07-03T08:43:06;6.32;;;1.30;;
20095;SDS011;10207;50.942;6.900;2022-07-03T08:45:32;3.50;;;0.88;;
20095;SDS011;10207;50.942;6.900;2022-07-03T08:47:58;4.80;;;1.20;;
20095;SDS011;10207;50.942;6.900;2022-07-03T08:50:24;4.95;;;1.23;;
20095;SDS011;10207;50.942;6.900;2022-07-03T08:52:51;4.88;;;1.08;;
20095;SDS011;10207;50.942;6.900;2022-07-03T08:55:17;6.47;;;1.27;;
20095;SDS011;10207;50.942;6.900;2022-07-03T08:57:44;1.42;;;0.80;;
20095;SDS011;10207;50.942;6.900;2022-07-03T09:00:11;1.42;;;0.70;;
20095;SDS011;10207;50.942;6.900;2022-07-03T09:02:38;4.65;;;1.17;;
20095;SDS011;10207;50.942;6.900;2022-07-03T09:05:04;3.10;;;0.90;;
20095;SDS011;10207;50.942;6.900;2022-07-03T09:07:31;2.10;;;0.70;;
20095;SDS011;10207;50.942;6.900;2022-07-03T09:09:59;2.15;;;0.70;;
20095;SDS011;10207;50.942;6.900;2022-07-03T09:12:25;4.38;;;1.48;;
20095;SDS011;10207;50.942;6.900;2022-07-03T09:14:51;3.17;;;1.17;;
20095;SDS011;10207;50.942;6.900;2022-07-03T09:17:17;4.10;;;0.85;;
20095;SDS011;10207;50.942;6.900;2022-07-03T09:24:51;3.35;;;0.82;;
20095;SDS011;10207;50.942;6.900;2022-07-03T09:27:20;2.60;;;0.82;;
20095;SDS011;10207;50.942;6.900;2022-07-03T09:30:00;4.00;;;0.95;;
20095;SDS011;10207;50.942;6.900;2022-07-03T09:32:47;2.60;;;0.75;;
20095;SDS011;10207;50.942;6.900;2022-07-03T09:37:38;2.53;;;0.80;;
20095;SDS011;10207;50.942;6.900;2022-07-03T09:40:04;4.53;;;1.10;;
20095;SDS011;10207;50.942;6.900;2022-07-03T09:42:30;4.10;;;1.13;;
20095;SDS011;10207;50.942;6.900;2022-07-03T09:44:56;4.05;;;0.90;;
20095;SDS011;10207;50.942;6.900;2022-07-03T09:47:22;6.75;;;1.15;;
20095;SDS011;10207;50.942;6.900;2022-07-03T09:54:52;5.47;;;1.00;;
20095;SDS011;10207;50.942;6.900;2022-07-03T09:57:17;1.73;;;0.75;;
20095;SDS011;10207;50.942;6.900;2022-07-03T09:59:43;4.18;;;0.90;;
20095;SDS011;10207;50.942;6.900;2022-07-03T10:02:09;3.17;;;1.00;;
20095;SDS011;10207;50.942;6.900;2022-07-03T10:04:35;4.93;;;1.17;;
20095;SDS011;10207;50.942;6.900;2022-07-03T10:07:00;4.03;;;0.77;;
20095;SDS011;10207;50.942;6.900;2022-07-03T10:09:27;4.53;;;1.20;;
20095;SDS011;10207;50.942;6.900;2022-07-03T10:11:54;2.53;;;0.80;;
20095;SDS011;10207;50.942;6.900;2022-07-03T10:14:24;3.80;;;1.27;;
20095;SDS011;10207;50.942;6.900;2022-07-03T10:16:50;4.15;;;1.67;;
20095;SDS011;10207;50.942;6.900;2022-07-03T10:19:21;2.15;;;0.90;;
20095;SDS011;10207;50.942;6.900;2022-07-03T10:21:50;3.40;;;0.85;;
20095;SDS011;10207;50.942;6.900;2022-07-03T10:24:17;3.67;;;0.80;;
20095;SDS011;10207;50.942;6.900;2022-07-03T10:26:43;2.38;;;1.20;;
20095;SDS011;10207;50.942;6.900;2022-07-03T10:29:09;4.95;;;1.55;;
20095;SDS011;10207;50.942;6.900;2022-07-03T10:31:37;5.10;;;1.30;;
20095;SDS011;10207;50.942;6.900;2022-07-03T10:34:02;2.47;;;1.02;;
20095;SDS011;10207;50.942;6.900;2022-07-03T10:36:29;1.90;;;0.90;;
20095;SDS011;10207;50.942;6.900;2022-07-03T10:38:55;3.22;;;1.13;;
20095;SDS011;10207;50.942;6.900;2022-07-03T10:41:27;2.35;;;0.80;;
20095;SDS011;10207;50.942;6.900;2022-07-03T10:44:12;4.13;;;1.30;;
20095;SDS011;10207;50.942;6.900;2022-07-03T10:46:57;2.55;;;1.13;;
20095;SDS011;10207;50.942;6.900;2022-07-03T10:49:23;3.33;;;1.10;;
20095;SDS011;10207;50.942;6.900;2022-07-03T10:51:52;6.05;;;1.63;;
20095;SDS011;10207;50.942;6.900;2022-07-03T10:54:19;5.55;;;1.50;;
20095;SDS011;10207;50.942;6.900;2022-07-03T11:02:31;2.63;;;0.88;;
20095;SDS011;10207;50.942;6.900;2022-07-03T11:15:34;3.92;;;1.08;;
20095;SDS011;10207;50.942;6.900;2022-07-03T11:18:07;4.03;;;1.55;;
20095;SDS011;10207;50.942;6.900;2022-07-03T11:20:33;3.65;;;0.95;;
20095;SDS011;10207;50.942;6.900;2022-07-03T11:25:25;2.00;;;1.10;;
20095;SDS011;10207;50.942;6.900;2022-07-03T11:27:50;4.65;;;1.50;;
20095;SDS011;10207;50.942;6.900;2022-07-03T11:30:18;3.08;;;0.85;;
20095;SDS011;10207;50.942;6.900;2022-07-03T11:32:53;4.43;;;1.20;;
20095;SDS011;10207;50.942;6.900;2022-07-03T11:38:07;3.50;;;0.70;;
20095;SDS011;10207;50.942;6.900;2022-07-03T11:40:33;3.03;;;0.90;;
20095;SDS011;10207;50.942;6.900;2022-07-03T11:43:01;2.28;;;0.57;;
20095;SDS011;10207;50.942;6.900;2022-07-03T11:45:30;5.22;;;0.82;;
20095;SDS011;10207;50.942;6.900;2022-07-03T11:47:56;5.38;;;1.10;;
20095;SDS011;10207;50.942;6.900;2022-07-03T11:50:38;1.70;;;0.75;;
20095;SDS011;10207;50.942;6.900;2022-07-03T11:53:17;2.13;;;0.93;;
20095;SDS011;10207;50.942;6.900;2022-07-03T11:55:53;5.70;;;0.60;;
20095;SDS011;10207;50.942;6.900;2022-07-03T11:58:19;4.72;;;0.93;;
20095;SDS011;10207;50.942;6.900;2022-07-03T12:00:45;2.85;;;0.98;;
20095;SDS011;10207;50.942;6.900;2022-07-03T12:03:14;1.80;;;0.70;;
20095;SDS011;10207;50.942;6.900;2022-07-03T12:05:53;1.95;;;0.90;;
20095;SDS011;10207;50.942;6.900;2022-07-03T12:08:23;1.45;;;0.60;;
20095;SDS011;10207;50.942;6.900;2022-07-03T12:10:49;3.85;;;0.60;;
20095;SDS011;10207;50.942;6.900;2022-07-03T12:13:22;2.38;;;0.70;;
20095;SDS011;10207;50.942;6.900;2022-07-03T12:15:48;4.55;;;0.65;;
20095;SDS011;10207;50.942;6.900;2022-07-03T12:18:14;2.83;;;0.50;;
20095;SDS011;10207;50.942;6.900;2022-07-03T12:20:40;3.65;;;0.75;;
20095;SDS011;10207;50.942;6.900;2022-07-03T12:23:05;2.00;;;1.00;;
20095;SDS011;10207;50.942;6.900;2022-07-03T12:25:31;5.78;;;0.90;;
20095;SDS011;10207;50.942;6.900;2022-07-03T12:27:57;7.22;;;0.73;;
20095;SDS011;10207;50.942;6.900;2022-07-03T12:30:23;2.72;;;0.60;;
20095;SDS011;10207;50.942;6.900;2022-07-03T12:32:51;1.63;;;0.73;;
20095;SDS011;10207;50.942;6.900;2022-07-03T12:35:20;2.00;;;0.90;;
20095;SDS011;10207;50.942;6.900;2022-07-03T12:37:46;3.47;;;0.57;;
20095;SDS011;10207;50.942;6.900;2022-07-03T12:40:13;3.05;;;0.93;;
20095;SDS011;10207;50.942;6.900;2022-07-03T12:42:43;3.42;;;0.80;;
20095;SDS011;10207;50.942;6.900;2022-07-03T12:45:10;2.90;;;0.55;;
20095;SDS011;10207;50.942;6.900;2022-07-03T12:47:36;2.67;;;0.60;;
20095;SDS011;10207;50.942;6.900;2022-07-03T12:50:07;3.25;;;0.75;;
20095;SDS011;10207;50.942;6.900;2022-07-03T12:52:33;4.30;;;0.75;;
20095;SDS011;10207;50.942;6.900;2022-07-03T12:55:00;2.10;;;0.65;;
20095;SDS011;10207;50.942;6.900;2022-07-03T12:57:27;1.00;;;0.40;;
20095;SDS011;10207;50.942;6.900;2022-07-03T13:00:15;4.00;;;0.52;;
20095;SDS011;10207;50.942;6.900;2022-07-03T13:02:46;1.83;;;0.60;;
20095;SDS011;10207;50.942;6.900;2022-07-03T13:05:21;1.02;;;0.60;;
20095;SDS011;10207;50.942;6.900;2022-07-03T13:07:49;3.08;;;0.50;;
20095;SDS011;10207;50.942;6.900;2022-07-03T13:10:15;5.82;;;0.50;;
20095;SDS011;10207;50.942;6.900;2022-07-03T13:12:45;3.38;;;0.60;;
20095;SDS011;10207;50.942;6.900;2022-07-03T13:15:12;4.50;;;0.88;;
20095;SDS011;10207;50.942;6.900;2022-07-03T13:20:15;4.57;;;0.88;;
20095;SDS011;10207;50.942;6.900;2022-07-03T13:22:41;3.60;;;0.70;;
20095;SDS011;10207;50.942;6.900;2022-07-03T13:25:07;1.08;;;0.40;;
20095;SDS011;10207;50.942;6.900;2022-07-03T13:27:33;2.25;;;0.70;;
20095;SDS011;10207;50.942;6.900;2022-07-03T13:29:59;1.95;;;0.73;;
20095;SDS011;10207;50.942;6.900;2022-07-03T13:32:24;2.15;;;0.68;;
20095;SDS011;10207;50.942;6.900;2022-07-03T13:34:50;3.72;;;0.50;;
20095;SDS011;10207;50.942;6.900;2022-07-03T13:37:16;1.25;;;0.35;;
20095;SDS011;10207;50.942;6.900;2022-07-03T13:39:41;2.45;;;0.70;;
20095;SDS011;10207;50.942;6.900;2022-07-03T13:42:07;2.67;;;0.70;;
20095;SDS011;10207;50.942;6.900;2022-07-03T13:44:36;2.65;;;0.80;;
20095;SDS011;10207;50.942;6.900;2022-07-03T13:47:03;1.75;;;0.52;;
20095;SDS011;10207;50.942;6.900;2022-07-03T13:49:31;4.05;;;0.80;;
20095;SDS011;10207;50.942;6.900;2022-07-03T13:51:57;4.20;;;1.00;;
20095;SDS011;10207;50.942;6.900;2022-07-03T13:54:22;2.40;;;0.60;;
20095;SDS011;10207;50.942;6.900;2022-07-03T13:56:48;2.25;;;0.57;;
20095;SDS011;10207;50.942;6.900;2022-07-03T13:59:15;4.00;;;0.60;;
20095;SDS011;10207;50.942;6.900;2022-07-03T14:01:40;2.60;;;0.52;;
20095;SDS011;10207;50.942;6.900;2022-07-03T14:04:06;3.03;;;0.60;;
20095;SDS011;10207;50.942;6.900;2022-07-03T14:06:32;2.10;;;0.57;;
20095;SDS011;10207;50.942;6.900;2022-07-03T14:08:58;1.75;;;0.43;;
20095;SDS011;10207;50.942;6.900;2022-07-03T14:11:23;2.22;;;0.47;;
20095;SDS011;10207;50.942;6.900;2022-07-03T14:13:49;1.95;;;0.50;;
20095;SDS011;10207;50.942;6.900;2022-07-03T14:16:15;3.38;;;0.55;;
20095;SDS011;10207;50.942;6.900;2022-07-03T14:18:41;1.42;;;0.38;;
20095;SDS011;10207;50.942;6.900;2022-07-03T14:21:06;2.97;;;0.60;;
20095;SDS011;10207;50.942;6.900;2022-07-03T14:23:32;1.25;;;0.52;;
20095;SDS011;10207;50.942;6.900;2022-07-03T14:26:01;2.58;;;0.50;;
20095;SDS011;10207;50.942;6.900;2022-07-03T14:28:27;2.60;;;0.90;;
20095;SDS011;10207;50.942;6.900;2022-07-03T14:31:11;2.22;;;0.70;;
20095;SDS011;10207;50.942;6.900;2022-07-03T14:33:55;2.70;;;0.65;;
20095;SDS011;10207;50.942;6.900;2022-07-03T14:36:21;0.88;;;0.57;;
20095;SDS011;10207;50.942;6.900;2022-07-03T14:38:47;1.52;;;0.80;;
20095;SDS011;10207;50.942;6.900;2022-07-03T14:41:12;1.27;;;0.60;;
20095;SDS011;10207;50.942;6.900;2022-07-03T14:43:38;1.33;;;0.45;;
20095;SDS011;10207;50.942;6.900;2022-07-03T14:46:04;2.55;;;0.63;;
20095;SDS011;10207;50.942;6.900;2022-07-03T14:48:30;1.38;;;0.52;;
20095;SDS011;10207;50.942;6.900;2022-07-03T14:50:55;2.58;;;0.52;;
20095;SDS011;10207;50.942;6.900;2022-07-03T14:53:21;0.98;;;0.40;;
20095;SDS011;10207;50.942;6.900;2022-07-03T14:55:48;2.42;;;0.75;;
20095;SDS011;10207;50.942;6.900;2022-07-03T14:58:18;1.88;;;0.77;;
20095;SDS011;10207;50.942;6.900;2022-07-03T15:00:51;2.05;;;0.60;;
20095;SDS011;10207;50.942;6.900;2022-07-03T15:05:52;2.10;;;0.85;;
20095;SDS011;10207;50.942;6.900;2022-07-03T15:10:50;6.53;;;1.02;;
20095;SDS011;10207;50.942;6.900;2022-07-03T15:13:18;1.65;;;0.68;;
20095;SDS011;10207;50.942;6.900;2022-07-03T15:15:45;2.70;;;0.40;;
20095;SDS011;10207;50.942;6.900;2022-07-03T15:18:11;1.20;;;0.70;;
20095;SDS011;10207;50.942;6.900;2022-07-03T15:20:37;2.80;;;0.43;;
20095;SDS011;10207;50.942;6.900;2022-07-03T15:23:03;2.75;;;0.55;;
20095;SDS011;10207;50.942;6.900;2022-07-03T15:25:30;2.20;;;0.80;;
20095;SDS011;10207;50.942;6.900;2022-07-03T15:27:56;2.92;;;0.50;;
20095;SDS011;10207;50.942;6.900;2022-07-03T15:30:23;2.35;;;0.38;;
20095;SDS011;10207;50.942;6.900;2022-07-03T15:32:49;1.75;;;0.47;;
20095;SDS011;10207;50.942;6.900;2022-07-03T15:35:16;1.60;;;0.50;;
20095;SDS011;10207;50.942;6.900;2022-07-03T15:42:51;2.67;;;0.70;;
20095;SDS011;10207;50.942;6.900;2022-07-03T15:45:33;3.00;;;0.60;;
20095;SDS011;10207;50.942;6.900;2022-07-03T15:48:10;1.45;;;0.38;;
20095;SDS011;10207;50.942;6.900;2022-07-03T15:50:53;5.35;;;0.70;;
20095;SDS011;10207;50.942;6.900;2022-07-03T15:53:24;2.55;;;0.98;;
20095;SDS011;10207;50.942;6.900;2022-07-03T15:55:53;1.73;;;0.65;;
20095;SDS011;10207;50.942;6.900;2022-07-03T15:58:19;3.83;;;0.75;;
20095;SDS011;10207;50.942;6.900;2022-07-03T16:00:47;1.75;;;0.52;;
20095;SDS011;10207;50.942;6.900;2022-07-03T16:03:35;4.18;;;0.65;;
20095;SDS011;10207;50.942;6.900;2022-07-03T16:06:07;3.65;;;0.77;;